createdAt,value
2018-03-30T00:02:03.500Z,5.90
2018-03-30T00:04:30.946Z,5.90
2018-03-30T00:07:06.249Z,6.00
2018-03-30T00:09:45.510Z,6.00
2018-03-30T00:12:13.719Z,6.00
2018-03-30T00:14:41.157Z,6.00
2018-03-30T00:17:09.410Z,6.00
2018-03-30T00:19:36.854Z,6.00
2018-03-30T00:22:04.326Z,6.10
2018-03-30T00:24:31.838Z,6.00
2018-03-30T00:26:59.222Z,6.10
2018-03-30T00:29:27.453Z,6.10
2018-03-30T00:31:54.898Z,6.10
2018-03-30T00:34:22.361Z,6.20
2018-03-30T00:36:50.576Z,6.20
2018-03-30T00:39:18.015Z,6.20
2018-03-30T00:41:46.241Z,6.30
2018-03-30T00:44:13.693Z,6.30
2018-03-30T00:46:41.157Z,6.30
2018-03-30T00:49:08.606Z,6.40
2018-03-30T00:51:36.898Z,6.40
2018-03-30T00:54:05.118Z,6.50
2018-03-30T00:56:32.605Z,6.40
2018-03-30T00:59:00.066Z,6.50
2018-03-30T01:01:27.514Z,6.50
2018-03-30T01:03:54.967Z,6.50
2018-03-30T01:06:23.186Z,6.50
2018-03-30T01:08:50.637Z,6.50
2018-03-30T01:11:18.105Z,6.50
2018-03-30T01:13:45.576Z,6.50
2018-03-30T01:16:13.014Z,6.50
2018-03-30T01:18:40.470Z,6.50
2018-03-30T01:21:07.918Z,6.50
2018-03-30T01:23:35.378Z,6.50
2018-03-30T01:26:02.830Z,6.50
2018-03-30T01:28:30.281Z,6.50
2018-03-30T01:30:58.498Z,6.50
2018-03-30T01:33:26.050Z,6.50
2018-03-30T01:35:54.269Z,6.50
2018-03-30T01:38:21.718Z,6.50
2018-03-30T01:40:49.246Z,6.50
2018-03-30T01:43:16.786Z,6.50
2018-03-30T01:45:44.226Z,6.50
2018-03-30T01:48:11.693Z,6.50
2018-03-30T01:50:39.134Z,6.60
2018-03-30T01:53:07.345Z,6.50
2018-03-30T01:55:34.794Z,6.60
2018-03-30T01:58:03.043Z,6.60
2018-03-30T02:00:30.512Z,6.50
2018-03-30T02:02:57.952Z,6.50
2018-03-30T02:05:25.402Z,6.50
2018-03-30T02:07:53.622Z,6.60
2018-03-30T02:10:21.077Z,6.60
2018-03-30T02:12:48.767Z,6.60
2018-03-30T02:15:16.210Z,6.60
2018-03-30T02:17:43.650Z,6.60
2018-03-30T02:20:11.105Z,6.60
2018-03-30T02:22:38.547Z,6.70
2018-03-30T02:25:06.017Z,6.70
2018-03-30T02:27:33.458Z,6.70
2018-03-30T02:30:00.966Z,6.70
2018-03-30T02:32:28.443Z,6.60
2018-03-30T02:34:55.898Z,6.60
2018-03-30T02:37:23.358Z,6.60
2018-03-30T02:39:50.847Z,6.60
2018-03-30T02:42:18.317Z,6.60
2018-03-30T02:44:45.786Z,6.60
2018-03-30T02:47:13.230Z,6.60
2018-03-30T02:49:40.692Z,6.60
2018-03-30T02:52:08.198Z,6.60
2018-03-30T02:54:35.649Z,6.60
2018-03-30T02:57:03.142Z,6.60
2018-03-30T02:59:30.586Z,6.60
2018-03-30T03:01:58.054Z,6.60
2018-03-30T03:04:25.610Z,6.60
2018-03-30T03:06:53.085Z,6.60
2018-03-30T03:09:20.566Z,6.60
2018-03-30T03:11:48.026Z,6.50
2018-03-30T03:14:15.481Z,6.50
2018-03-30T03:16:42.926Z,6.50
2018-03-30T03:19:10.466Z,6.50
2018-03-30T03:21:37.925Z,6.50
2018-03-30T03:24:05.389Z,6.50
2018-03-30T03:26:32.859Z,6.60
2018-03-30T03:29:00.303Z,6.50
2018-03-30T03:31:27.820Z,6.50
2018-03-30T03:33:55.277Z,6.50
2018-03-30T03:36:22.722Z,6.50
2018-03-30T03:38:50.233Z,6.50
2018-03-30T03:41:17.758Z,6.60
2018-03-30T03:43:45.262Z,6.50
2018-03-30T03:46:12.723Z,6.60
2018-03-30T03:48:40.168Z,6.50
2018-03-30T03:51:07.638Z,6.60
2018-03-30T03:53:35.081Z,6.60
2018-03-30T03:56:03.291Z,6.60
2018-03-30T03:58:30.747Z,6.60
2018-03-30T04:00:58.958Z,6.60
2018-03-30T04:03:26.428Z,6.60
2018-03-30T04:05:53.865Z,6.60
2018-03-30T04:08:22.082Z,6.60
2018-03-30T04:10:49.649Z,6.60
2018-03-30T04:13:17.853Z,6.60
2018-03-30T04:15:45.355Z,6.60
2018-03-30T04:18:12.793Z,6.60
2018-03-30T04:20:40.242Z,6.60
2018-03-30T04:23:07.750Z,6.60
2018-03-30T04:25:35.218Z,6.60
2018-03-30T04:28:02.690Z,6.50
2018-03-30T04:30:30.130Z,6.60
2018-03-30T04:32:57.569Z,6.50
2018-03-30T04:35:25.797Z,6.50
2018-03-30T04:37:53.234Z,6.50
2018-03-30T04:40:21.474Z,6.50
2018-03-30T04:42:48.918Z,6.50
2018-03-30T04:45:16.362Z,6.50
2018-03-30T04:47:44.605Z,6.50
2018-03-30T04:50:12.038Z,6.40
2018-03-30T04:52:39.503Z,6.40
2018-03-30T04:55:06.954Z,6.50
2018-03-30T04:57:35.169Z,6.50
2018-03-30T05:00:02.633Z,6.40
2018-03-30T05:02:30.134Z,6.50
2018-03-30T05:04:57.601Z,6.50
2018-03-30T05:07:25.039Z,6.50
2018-03-30T05:09:52.555Z,6.50
2018-03-30T05:12:20.012Z,6.50
2018-03-30T05:14:47.490Z,6.50
2018-03-30T05:17:14.954Z,6.50
2018-03-30T05:19:42.434Z,6.50
2018-03-30T05:22:09.882Z,6.50
2018-03-30T05:24:37.342Z,6.50
2018-03-30T05:27:04.798Z,6.50
2018-03-30T05:29:32.266Z,6.50
2018-03-30T05:31:59.725Z,6.50
2018-03-30T05:34:27.946Z,6.50
2018-03-30T05:36:55.406Z,6.50
2018-03-30T05:39:22.906Z,6.50
2018-03-30T05:41:50.361Z,6.60
2018-03-30T05:44:17.803Z,6.60
2018-03-30T05:46:45.261Z,6.60
2018-03-30T05:49:13.514Z,6.70
2018-03-30T05:51:41.032Z,6.70
2018-03-30T05:54:09.230Z,6.70
2018-03-30T05:56:36.695Z,6.80
2018-03-30T05:59:04.132Z,6.80
2018-03-30T06:01:32.362Z,6.90
2018-03-30T06:03:59.813Z,6.90
2018-03-30T06:06:27.386Z,7.00
2018-03-30T06:08:55.598Z,7.10
2018-03-30T06:11:23.046Z,7.10
2018-03-30T06:13:50.514Z,7.20
2018-03-30T06:16:17.962Z,7.30
2018-03-30T06:18:46.177Z,7.30
2018-03-30T06:21:13.635Z,7.30
2018-03-30T06:23:41.094Z,7.40
2018-03-30T06:26:09.334Z,7.90
2018-03-30T06:28:36.785Z,7.80
2018-03-30T06:31:04.337Z,8.10
2018-03-30T06:34:11.954Z,8.20
2018-03-30T06:36:39.423Z,8.40
2018-03-30T06:39:06.910Z,8.50
2018-03-30T06:41:34.400Z,8.50
2018-03-30T06:44:01.839Z,8.40
2018-03-30T06:46:29.306Z,8.30
2018-03-30T06:48:56.820Z,8.30
2018-03-30T06:51:24.258Z,8.30
2018-03-30T06:53:51.722Z,8.30
2018-03-30T06:56:19.161Z,8.20
2018-03-30T06:58:47.474Z,8.30
2018-03-30T07:01:15.794Z,8.20
2018-03-30T07:03:43.250Z,8.20
2018-03-30T07:06:10.742Z,8.20
2018-03-30T07:08:38.216Z,8.20
2018-03-30T07:11:05.657Z,8.10
2018-03-30T07:13:33.152Z,8.20
2018-03-30T07:16:00.725Z,8.30
2018-03-30T07:18:28.193Z,8.60
2018-03-30T07:20:55.638Z,9.00
2018-03-30T07:23:23.110Z,9.40
2018-03-30T07:25:50.570Z,9.80
2018-03-30T07:31:10.743Z,10.50
2018-03-30T07:33:39.025Z,10.50
2018-03-30T07:36:06.470Z,10.50
2018-03-30T07:38:33.938Z,10.50
2018-03-30T07:41:01.400Z,10.50
2018-03-30T07:43:29.657Z,10.80
2018-03-30T07:45:57.101Z,10.70
2018-03-30T07:48:24.563Z,11.00
2018-03-30T07:50:52.022Z,11.10
2018-03-30T07:53:19.469Z,11.20
2018-03-30T07:55:46.929Z,11.50
2018-03-30T07:58:14.400Z,11.60
2018-03-30T08:00:41.850Z,11.50
2018-03-30T08:03:10.084Z,12.20
2018-03-30T08:05:37.558Z,12.10
2018-03-30T08:08:05.354Z,12.50
2018-03-30T08:10:32.838Z,12.30
2018-03-30T08:13:01.067Z,12.40
2018-03-30T08:15:28.538Z,12.40
2018-03-30T08:17:55.990Z,12.50
2018-03-30T08:20:25.260Z,12.80
2018-03-30T08:22:52.704Z,12.80
2018-03-30T08:25:20.157Z,12.90
2018-03-30T08:27:47.666Z,13.00
2018-03-30T08:30:15.201Z,13.00
2018-03-30T08:32:42.673Z,13.30
2018-03-30T08:35:10.139Z,13.60
2018-03-30T08:37:37.703Z,13.80
2018-03-30T08:40:05.222Z,13.90
2018-03-30T08:42:32.682Z,13.90
2018-03-30T08:45:00.224Z,14.00
2018-03-30T08:47:27.800Z,14.30
2018-03-30T08:49:55.286Z,14.60
2018-03-30T08:52:22.840Z,14.80
2018-03-30T08:54:50.294Z,14.80
2018-03-30T08:57:18.555Z,15.20
2018-03-30T08:59:46.042Z,15.20
2018-03-30T09:02:14.296Z,15.70
2018-03-30T09:04:41.764Z,15.70
2018-03-30T09:07:09.210Z,15.80
2018-03-30T09:09:36.682Z,15.80
2018-03-30T09:12:04.131Z,15.80
2018-03-30T09:14:31.642Z,15.60
2018-03-30T09:16:59.118Z,15.70
2018-03-30T09:19:26.572Z,15.60
2018-03-30T09:21:54.059Z,15.40
2018-03-30T09:24:21.790Z,15.70
2018-03-30T09:26:49.238Z,15.40
2018-03-30T09:29:17.466Z,15.90
2018-03-30T09:31:44.921Z,15.80
2018-03-30T09:34:12.396Z,16.30
2018-03-30T09:36:39.856Z,16.30
2018-03-30T09:39:07.313Z,16.20
2018-03-30T09:41:35.558Z,16.40
2018-03-30T09:44:03.025Z,16.30
2018-03-30T09:46:30.486Z,16.80
2018-03-30T09:48:57.940Z,16.30
2018-03-30T09:51:25.474Z,15.60
2018-03-30T09:53:52.939Z,15.80
2018-03-30T09:56:21.157Z,15.70
2018-03-30T09:58:48.622Z,15.70
2018-03-30T10:01:16.071Z,16.10
2018-03-30T10:03:48.145Z,16.20
2018-03-30T10:06:16.457Z,15.70
2018-03-30T10:08:43.974Z,15.70
2018-03-30T10:11:11.554Z,16.10
2018-03-30T10:13:39.006Z,16.50
2018-03-30T10:16:06.502Z,16.50
2018-03-30T10:18:33.946Z,16.70
2018-03-30T10:21:01.514Z,16.50
2018-03-30T10:23:28.962Z,16.70
2018-03-30T10:25:56.409Z,17.30
2018-03-30T10:28:24.634Z,17.10
2018-03-30T10:30:52.118Z,17.10
2018-03-30T10:33:19.578Z,17.10
2018-03-30T10:35:47.026Z,17.30
2018-03-30T10:38:14.497Z,17.70
2018-03-30T10:40:41.966Z,17.90
2018-03-30T10:43:09.422Z,17.60
2018-03-30T10:45:36.885Z,17.80
2018-03-30T10:48:05.124Z,18.80
2018-03-30T10:50:32.590Z,18.70
2018-03-30T10:53:00.041Z,19.00
2018-03-30T10:55:27.486Z,19.60
2018-03-30T10:57:54.943Z,19.70
2018-03-30T11:00:23.251Z,19.70
2018-03-30T11:02:50.758Z,19.70
2018-03-30T11:05:18.248Z,19.80
2018-03-30T11:07:45.762Z,20.10
2018-03-30T11:10:13.982Z,20.00
2018-03-30T11:12:41.446Z,20.00
2018-03-30T11:15:08.918Z,19.70
2018-03-30T11:17:36.365Z,19.70
2018-03-30T11:20:03.933Z,19.70
2018-03-30T11:22:31.437Z,19.40
2018-03-30T11:24:58.882Z,19.40
2018-03-30T11:27:26.350Z,19.80
2018-03-30T11:29:53.797Z,20.10
2018-03-30T11:32:22.099Z,20.70
2018-03-30T11:34:50.313Z,20.20
2018-03-30T11:37:17.762Z,20.20
2018-03-30T11:39:45.328Z,19.80
2018-03-30T16:56:06.498Z,13.40
2018-03-30T16:58:33.500Z,13.30
2018-03-30T17:01:00.495Z,13.30
2018-03-30T17:03:27.473Z,13.20
2018-03-30T17:05:54.430Z,13.20
2018-03-30T17:08:22.902Z,13.40
2018-03-30T17:10:49.906Z,13.40
2018-03-30T17:13:17.712Z,13.40
2018-03-30T17:15:44.701Z,13.40
2018-03-30T17:18:11.694Z,13.40
2018-03-30T17:20:39.439Z,13.40
2018-03-30T17:23:06.451Z,13.40
2018-03-30T17:25:33.429Z,13.50
2018-03-30T17:28:00.388Z,13.40
2018-03-30T17:30:27.366Z,13.30
2018-03-30T17:32:54.351Z,13.30
2018-03-30T17:35:21.386Z,13.20
2018-03-30T17:37:48.453Z,13.10
2018-03-30T17:40:15.437Z,13.10
2018-03-30T17:42:42.487Z,13.00
2018-03-30T17:45:09.450Z,13.00
2018-03-30T17:47:36.495Z,12.90
2018-03-30T17:50:03.479Z,12.80
2018-03-30T17:52:30.426Z,12.80
2018-03-30T17:54:57.772Z,12.90
2018-03-30T17:57:24.828Z,12.90
2018-03-30T17:59:51.886Z,12.80
2018-03-30T18:02:18.908Z,12.70
2018-03-30T18:04:46.626Z,12.70
2018-03-30T18:07:13.601Z,12.70
2018-03-30T18:09:40.642Z,12.70
2018-03-30T18:12:07.603Z,12.60
2018-03-30T18:14:34.608Z,12.40
2018-03-30T18:17:02.346Z,11.90
2018-03-30T18:19:29.309Z,11.90
2018-03-30T18:21:56.355Z,11.70
2018-03-30T18:25:54.586Z,11.40
2018-03-30T18:28:21.548Z,11.40
2018-03-30T18:30:48.642Z,11.30
2018-03-30T18:33:15.718Z,11.40
2018-03-30T18:35:42.819Z,11.30
2018-03-30T18:38:10.934Z,11.20
2018-03-30T18:40:37.933Z,11.20
2018-03-30T18:43:04.967Z,11.10
2018-03-30T18:45:31.987Z,11.20
2018-03-30T18:47:58.988Z,11.20
2018-03-30T18:50:25.946Z,11.20
2018-03-30T18:52:52.939Z,11.10
2018-03-30T18:55:19.998Z,11.00
2018-03-30T18:57:46.954Z,11.00
2018-03-30T19:00:13.918Z,11.00
2018-03-30T19:02:41.481Z,11.00
2018-03-30T19:05:08.546Z,10.90
2018-03-30T19:07:35.607Z,10.80
2018-03-30T19:10:02.643Z,10.80
2018-03-30T19:12:29.590Z,10.70
2018-03-30T19:14:56.555Z,10.70
2018-03-30T19:17:23.534Z,10.70
2018-03-30T19:19:50.490Z,10.60
2018-03-30T19:22:17.447Z,10.50
2018-03-30T19:24:44.418Z,10.50
2018-03-30T19:27:11.381Z,10.40
2018-03-30T19:29:38.345Z,10.40
2018-03-30T19:32:06.922Z,10.30
2018-03-30T19:34:33.887Z,10.30
2018-03-30T19:37:00.938Z,10.30
2018-03-30T19:39:27.933Z,10.20
2018-03-30T19:41:55.671Z,9.90
2018-03-30T19:44:22.634Z,9.90
2018-03-30T19:46:49.622Z,9.90
2018-03-30T19:49:16.573Z,9.80
2018-03-30T19:51:43.526Z,9.70
2018-03-30T19:54:10.506Z,9.80
2018-03-30T19:56:38.234Z,9.80
2018-03-30T19:59:05.191Z,9.80
2018-03-30T20:01:32.171Z,9.90
2018-03-30T20:03:59.220Z,9.80
2018-03-30T20:06:26.173Z,9.70
2018-03-30T20:08:53.142Z,9.70
2018-03-30T20:11:20.194Z,9.70
2018-03-30T20:13:47.318Z,9.60
2018-03-30T20:16:15.050Z,9.50
2018-03-30T20:18:42.045Z,9.50
2018-03-30T20:21:09.010Z,9.40
2018-03-30T20:23:35.982Z,9.30
2018-03-30T20:26:02.944Z,9.20
2018-03-30T20:28:29.890Z,9.30
2018-03-30T20:30:56.882Z,9.20
2018-03-30T20:33:23.934Z,9.20
2018-03-30T20:35:50.898Z,9.20
2018-03-30T20:38:17.870Z,9.20
2018-03-30T20:40:44.829Z,9.10
2018-03-30T20:43:11.789Z,9.10
2018-03-30T20:45:38.765Z,9.10
2018-03-30T20:48:06.490Z,9.10
2018-03-30T20:50:33.450Z,9.10
2018-03-30T20:53:00.422Z,9.10
2018-03-30T20:55:27.375Z,9.10
2018-03-30T20:57:54.326Z,9.10
2018-03-30T21:00:21.302Z,9.10
2018-03-30T21:02:48.259Z,9.10
2018-03-30T21:05:15.218Z,9.10
2018-03-30T21:07:53.942Z,9.10
2018-03-30T21:10:21.008Z,9.20
2018-03-30T21:12:47.958Z,9.10
2018-03-30T21:15:14.939Z,9.10
2018-03-30T21:17:41.898Z,9.10
2018-03-30T21:20:08.864Z,9.10
2018-03-30T21:22:35.841Z,9.00
2018-03-30T21:25:03.573Z,9.00
2018-03-30T21:27:30.635Z,9.00
2018-03-30T21:29:57.615Z,9.00
2018-03-30T21:32:24.564Z,9.00
2018-03-30T21:34:51.530Z,8.90
2018-03-30T21:37:18.502Z,8.90
2018-03-30T21:39:46.244Z,8.80
2018-03-30T21:42:13.198Z,8.80
2018-03-30T21:44:40.182Z,8.80
2018-03-30T21:47:07.142Z,8.70
2018-03-30T21:49:34.186Z,8.70
2018-03-30T21:52:02.691Z,8.60
2018-03-30T21:54:29.638Z,8.60
2018-03-30T21:56:56.593Z,8.60
2018-03-30T21:59:23.634Z,8.60
2018-03-30T22:01:50.594Z,8.60
2018-03-30T22:04:17.556Z,8.50
2018-03-30T22:06:44.622Z,8.60
2018-03-30T22:09:11.581Z,8.50
2018-03-30T22:11:38.538Z,8.50
2018-03-30T22:14:05.612Z,8.50
2018-03-30T22:16:32.565Z,8.40
2018-03-30T22:18:59.518Z,8.40
2018-03-30T22:21:26.570Z,8.40
2018-03-30T22:23:53.529Z,8.40
2018-03-30T22:26:20.651Z,8.40
2018-03-30T22:28:47.630Z,8.30
2018-03-30T22:31:14.577Z,8.30
2018-03-30T22:33:41.534Z,8.30
2018-03-30T22:36:08.522Z,8.30
2018-03-30T22:38:35.543Z,8.30
2018-03-30T22:41:02.490Z,8.30
2018-03-30T22:43:29.462Z,8.20
2018-03-30T22:45:56.433Z,8.20
2018-03-30T22:48:23.390Z,8.30
2018-03-30T22:50:50.470Z,8.30
2018-03-30T22:53:17.422Z,8.30
2018-03-30T22:55:44.382Z,8.20
2018-03-30T22:58:11.345Z,8.10
2018-03-30T23:00:38.307Z,8.10
2018-03-30T23:03:05.267Z,8.10
2018-03-30T23:05:32.238Z,8.10
2018-03-30T23:07:59.959Z,8.00
2018-03-30T23:10:26.956Z,8.00
2018-03-30T23:12:53.975Z,8.00
2018-03-30T23:15:20.921Z,8.00
2018-03-30T23:17:48.750Z,8.00
2018-03-30T23:20:15.731Z,7.90
2018-03-30T23:22:42.683Z,8.00
2018-03-30T23:25:09.638Z,8.00
2018-03-30T23:27:36.618Z,8.00
2018-03-30T23:30:04.346Z,8.00
2018-03-30T23:32:31.302Z,8.00
2018-03-30T23:34:58.274Z,8.10
2018-03-30T23:37:25.334Z,8.10
2018-03-30T23:39:52.362Z,8.10
2018-03-30T23:42:19.330Z,8.20
2018-03-30T23:44:46.306Z,8.10
2018-03-30T23:47:13.258Z,8.10
2018-03-30T23:49:40.250Z,8.00
2018-03-30T23:52:07.201Z,8.00
2018-03-30T23:54:34.157Z,7.90
2018-03-30T23:57:01.190Z,7.90
2018-03-30T23:59:28.146Z,7.80
